sensor_id;sensor_type;location;lat;lon;timestamp;temperature;humidity
9393;DHT22;4736;52.508;13.422;2023-05-10T00:02:30;11.90;56.80
9393;DHT22;4736;52.508;13.422;2023-05-10T00:05:33;11.90;56.70
9393;DHT22;4736;52.508;13.422;2023-05-10T00:08:36;11.90;56.70
9393;DHT22;4736;52.508;13.422;2023-05-10T00:11:39;11.90;56.90
9393;DHT22;4736;52.508;13.422;2023-05-10T00:14:42;11.90;57.00
9393;DHT22;4736;52.508;13.422;2023-05-10T00:17:47;11.70;57.20
9393;DHT22;4736;52.508;13.422;2023-05-10T00:20:50;11.70;57.20
9393;DHT22;4736;52.508;13.422;2023-05-10T00:23:53;11.70;57.70
9393;DHT22;4736;52.508;13.422;2023-05-10T00:26:56;11.70;57.50
9393;DHT22;4736;52.508;13.422;2023-05-10T00:29:59;11.70;57.30
9393;DHT22;4736;52.508;13.422;2023-05-10T00:33:04;11.70;57.10
9393;DHT22;4736;52.508;13.422;2023-05-10T00:36:08;11.70;57.00
9393;DHT22;4736;52.508;13.422;2023-05-10T00:39:13;11.70;57.00
9393;DHT22;4736;52.508;13.422;2023-05-10T00:42:17;11.70;57.30
9393;DHT22;4736;52.508;13.422;2023-05-10T00:45:20;11.50;57.40
9393;DHT22;4736;52.508;13.422;2023-05-10T00:48:24;11.50;57.40
9393;DHT22;4736;52.508;13.422;2023-05-10T00:51:27;11.50;57.20
9393;DHT22;4736;52.508;13.422;2023-05-10T00:54:31;11.40;57.20
9393;DHT22;4736;52.508;13.422;2023-05-10T00:57:34;11.40;57.60
9393;DHT22;4736;52.508;13.422;2023-05-10T01:00:38;11.30;57.60
9393;DHT22;4736;52.508;13.422;2023-05-10T01:03:46;11.20;57.70
9393;DHT22;4736;52.508;13.422;2023-05-10T01:06:49;11.20;57.60
9393;DHT22;4736;52.508;13.422;2023-05-10T01:09:53;11.10;57.90
9393;DHT22;4736;52.508;13.422;2023-05-10T01:12:57;11.10;58.00
9393;DHT22;4736;52.508;13.422;2023-05-10T01:16:02;11.10;58.30
9393;DHT22;4736;52.508;13.422;2023-05-10T01:19:13;11.00;58.20
9393;DHT22;4736;52.508;13.422;2023-05-10T01:22:40;11.00;58.20
9393;DHT22;4736;52.508;13.422;2023-05-10T01:26:03;11.00;58.30
9393;DHT22;4736;52.508;13.422;2023-05-10T01:29:18;10.90;58.40
9393;DHT22;4736;52.508;13.422;2023-05-10T01:32:31;10.90;58.40
9393;DHT22;4736;52.508;13.422;2023-05-10T01:35:41;10.90;58.50
9393;DHT22;4736;52.508;13.422;2023-05-10T01:38:50;10.80;58.50
9393;DHT22;4736;52.508;13.422;2023-05-10T01:41:56;10.70;58.60
9393;DHT22;4736;52.508;13.422;2023-05-10T01:45:11;10.70;58.70
9393;DHT22;4736;52.508;13.422;2023-05-10T01:48:19;10.70;58.80
9393;DHT22;4736;52.508;13.422;2023-05-10T01:51:24;10.60;59.00
9393;DHT22;4736;52.508;13.422;2023-05-10T01:54:29;10.60;59.10
9393;DHT22;4736;52.508;13.422;2023-05-10T01:57:35;10.50;59.50
9393;DHT22;4736;52.508;13.422;2023-05-10T02:00:42;10.50;59.80
9393;DHT22;4736;52.508;13.422;2023-05-10T02:03:50;10.50;59.70
9393;DHT22;4736;52.508;13.422;2023-05-10T02:06:53;10.50;59.60
9393;DHT22;4736;52.508;13.422;2023-05-10T02:09:58;10.40;59.70
9393;DHT22;4736;52.508;13.422;2023-05-10T02:13:02;10.30;59.80
9393;DHT22;4736;52.508;13.422;2023-05-10T02:16:06;10.40;59.90
9393;DHT22;4736;52.508;13.422;2023-05-10T02:19:12;10.40;59.80
9393;DHT22;4736;52.508;13.422;2023-05-10T02:22:17;10.30;60.00
9393;DHT22;4736;52.508;13.422;2023-05-10T02:25:22;10.30;60.00
9393;DHT22;4736;52.508;13.422;2023-05-10T02:28:26;10.20;60.00
9393;DHT22;4736;52.508;13.422;2023-05-10T02:31:30;10.30;60.00
9393;DHT22;4736;52.508;13.422;2023-05-10T02:34:37;10.20;60.10
9393;DHT22;4736;52.508;13.422;2023-05-10T02:37:41;10.20;60.20
9393;DHT22;4736;52.508;13.422;2023-05-10T02:40:44;10.20;60.40
9393;DHT22;4736;52.508;13.422;2023-05-10T02:43:50;10.10;60.40
9393;DHT22;4736;52.508;13.422;2023-05-10T02:46:54;10.10;60.50
9393;DHT22;4736;52.508;13.422;2023-05-10T02:50:00;10.10;60.50
9393;DHT22;4736;52.508;13.422;2023-05-10T02:53:09;10.10;60.40
9393;DHT22;4736;52.508;13.422;2023-05-10T02:56:17;10.10;60.30
9393;DHT22;4736;52.508;13.422;2023-05-10T02:59:23;10.00;60.30
9393;DHT22;4736;52.508;13.422;2023-05-10T03:02:29;10.00;60.50
9393;DHT22;4736;52.508;13.422;2023-05-10T03:05:34;10.00;60.30
9393;DHT22;4736;52.508;13.422;2023-05-10T03:08:37;10.00;60.40
9393;DHT22;4736;52.508;13.422;2023-05-10T03:11:47;10.00;60.30
9393;DHT22;4736;52.508;13.422;2023-05-10T03:14:57;10.00;60.50
9393;DHT22;4736;52.508;13.422;2023-05-10T03:18:07;9.90;60.70
9393;DHT22;4736;52.508;13.422;2023-05-10T03:21:14;9.90;60.50
9393;DHT22;4736;52.508;13.422;2023-05-10T03:24:21;9.80;60.60
9393;DHT22;4736;52.508;13.422;2023-05-10T03:27:27;9.80;60.70
9393;DHT22;4736;52.508;13.422;2023-05-10T03:30:31;9.80;60.80
9393;DHT22;4736;52.508;13.422;2023-05-10T03:33:34;9.70;60.60
9393;DHT22;4736;52.508;13.422;2023-05-10T03:36:39;9.70;60.70
9393;DHT22;4736;52.508;13.422;2023-05-10T03:39:42;9.70;60.70
9393;DHT22;4736;52.508;13.422;2023-05-10T03:42:45;9.70;60.80
9393;DHT22;4736;52.508;13.422;2023-05-10T03:45:48;9.70;61.10
9393;DHT22;4736;52.508;13.422;2023-05-10T03:48:51;9.80;60.80
9393;DHT22;4736;52.508;13.422;2023-05-10T03:51:55;9.70;60.70
9393;DHT22;4736;52.508;13.422;2023-05-10T03:54:59;9.70;60.80
9393;DHT22;4736;52.508;13.422;2023-05-10T03:58:02;9.70;61.10
9393;DHT22;4736;52.508;13.422;2023-05-10T04:01:05;9.70;61.00
9393;DHT22;4736;52.508;13.422;2023-05-10T04:04:08;9.70;60.80
9393;DHT22;4736;52.508;13.422;2023-05-10T04:07:13;9.70;60.80
9393;DHT22;4736;52.508;13.422;2023-05-10T04:10:16;9.70;61.10
9393;DHT22;4736;52.508;13.422;2023-05-10T04:13:19;9.80;60.80
9393;DHT22;4736;52.508;13.422;2023-05-10T04:16:23;9.80;60.90
9393;DHT22;4736;52.508;13.422;2023-05-10T04:19:29;9.80;60.70
9393;DHT22;4736;52.508;13.422;2023-05-10T04:22:33;10.00;60.70
9393;DHT22;4736;52.508;13.422;2023-05-10T04:25:36;9.90;60.60
9393;DHT22;4736;52.508;13.422;2023-05-10T04:28:39;10.00;60.60
9393;DHT22;4736;52.508;13.422;2023-05-10T04:31:42;10.00;60.70
9393;DHT22;4736;52.508;13.422;2023-05-10T04:34:46;10.00;60.50
9393;DHT22;4736;52.508;13.422;2023-05-10T04:37:51;10.10;60.50
9393;DHT22;4736;52.508;13.422;2023-05-10T04:40:54;10.20;60.40
9393;DHT22;4736;52.508;13.422;2023-05-10T04:43:57;10.20;60.40
9393;DHT22;4736;52.508;13.422;2023-05-10T04:47:10;10.30;60.50
9393;DHT22;4736;52.508;13.422;2023-05-10T04:50:28;10.40;60.20
9393;DHT22;4736;52.508;13.422;2023-05-10T04:53:33;10.50;60.10
9393;DHT22;4736;52.508;13.422;2023-05-10T04:56:36;10.70;59.80
9393;DHT22;4736;52.508;13.422;2023-05-10T04:59:40;10.80;59.80
9393;DHT22;4736;52.508;13.422;2023-05-10T05:02:43;11.00;59.30
9393;DHT22;4736;52.508;13.422;2023-05-10T05:05:47;11.10;59.00
9393;DHT22;4736;52.508;13.422;2023-05-10T05:08:51;11.30;58.70
9393;DHT22;4736;52.508;13.422;2023-05-10T05:11:54;11.60;58.20
9393;DHT22;4736;52.508;13.422;2023-05-10T05:14:57;11.80;58.00
9393;DHT22;4736;52.508;13.422;2023-05-10T05:18:00;12.00;57.50
9393;DHT22;4736;52.508;13.422;2023-05-10T05:21:13;12.20;56.90
9393;DHT22;4736;52.508;13.422;2023-05-10T05:24:18;12.50;56.20
9393;DHT22;4736;52.508;13.422;2023-05-10T05:27:21;12.50;56.30
9393;DHT22;4736;52.508;13.422;2023-05-10T05:30:25;12.90;55.70
9393;DHT22;4736;52.508;13.422;2023-05-10T05:33:28;13.10;55.10
9393;DHT22;4736;52.508;13.422;2023-05-10T05:36:32;13.50;54.60
9393;DHT22;4736;52.508;13.422;2023-05-10T05:39:39;13.70;54.40
9393;DHT22;4736;52.508;13.422;2023-05-10T05:42:42;13.90;53.90
9393;DHT22;4736;52.508;13.422;2023-05-10T05:45:45;14.20;53.30
9393;DHT22;4736;52.508;13.422;2023-05-10T05:48:48;14.30;53.20
9393;DHT22;4736;52.508;13.422;2023-05-10T05:51:51;14.50;52.90
9393;DHT22;4736;52.508;13.422;2023-05-10T05:54:55;14.80;52.70
9393;DHT22;4736;52.508;13.422;2023-05-10T05:57:58;14.80;52.60
9393;DHT22;4736;52.508;13.422;2023-05-10T06:01:01;14.90;52.20
9393;DHT22;4736;52.508;13.422;2023-05-10T06:04:05;15.10;52.10
9393;DHT22;4736;52.508;13.422;2023-05-10T06:07:08;15.40;51.50
9393;DHT22;4736;52.508;13.422;2023-05-10T06:10:12;15.30;51.20
9393;DHT22;4736;52.508;13.422;2023-05-10T06:13:15;15.40;51.20
9393;DHT22;4736;52.508;13.422;2023-05-10T06:16:18;15.50;50.90
9393;DHT22;4736;52.508;13.422;2023-05-10T06:19:21;15.50;51.30
9393;DHT22;4736;52.508;13.422;2023-05-10T06:22:24;15.70;50.80
9393;DHT22;4736;52.508;13.422;2023-05-10T06:25:29;16.00;51.00
9393;DHT22;4736;52.508;13.422;2023-05-10T06:28:32;16.40;49.80
9393;DHT22;4736;52.508;13.422;2023-05-10T06:31:35;16.40;49.70
9393;DHT22;4736;52.508;13.422;2023-05-10T06:34:40;16.40;49.90
9393;DHT22;4736;52.508;13.422;2023-05-10T06:37:44;16.40;50.20
9393;DHT22;4736;52.508;13.422;2023-05-10T06:40:49;16.20;50.00
9393;DHT22;4736;52.508;13.422;2023-05-10T06:43:52;16.40;50.30
9393;DHT22;4736;52.508;13.422;2023-05-10T06:46:55;16.60;50.40
9393;DHT22;4736;52.508;13.422;2023-05-10T06:49:58;16.60;50.20
9393;DHT22;4736;52.508;13.422;2023-05-10T06:53:02;16.90;49.70
9393;DHT22;4736;52.508;13.422;2023-05-10T06:56:06;16.90;49.50
9393;DHT22;4736;52.508;13.422;2023-05-10T06:59:09;17.00;49.40
9393;DHT22;4736;52.508;13.422;2023-05-10T07:02:14;17.20;49.20
9393;DHT22;4736;52.508;13.422;2023-05-10T07:05:18;17.20;49.20
9393;DHT22;4736;52.508;13.422;2023-05-10T07:08:22;17.10;49.60
9393;DHT22;4736;52.508;13.422;2023-05-10T07:11:26;17.00;49.30
9393;DHT22;4736;52.508;13.422;2023-05-10T07:14:29;17.10;49.20
9393;DHT22;4736;52.508;13.422;2023-05-10T07:17:33;17.10;49.30
9393;DHT22;4736;52.508;13.422;2023-05-10T07:20:37;17.20;50.00
9393;DHT22;4736;52.508;13.422;2023-05-10T07:23:40;17.20;50.50
9393;DHT22;4736;52.508;13.422;2023-05-10T07:26:47;17.20;50.00
9393;DHT22;4736;52.508;13.422;2023-05-10T07:29:50;17.20;50.00
9393;DHT22;4736;52.508;13.422;2023-05-10T07:32:53;17.00;50.20
9393;DHT22;4736;52.508;13.422;2023-05-10T07:35:57;17.00;50.20
9393;DHT22;4736;52.508;13.422;2023-05-10T07:39:01;17.00;50.30
9393;DHT22;4736;52.508;13.422;2023-05-10T07:42:06;17.00;50.20
9393;DHT22;4736;52.508;13.422;2023-05-10T07:45:10;17.00;49.70
9393;DHT22;4736;52.508;13.422;2023-05-10T07:48:13;17.00;50.10
9393;DHT22;4736;52.508;13.422;2023-05-10T07:51:16;17.20;50.00
9393;DHT22;4736;52.508;13.422;2023-05-10T07:54:19;17.20;50.10
9393;DHT22;4736;52.508;13.422;2023-05-10T07:57:23;17.20;50.70
9393;DHT22;4736;52.508;13.422;2023-05-10T08:00:27;17.20;49.90
9393;DHT22;4736;52.508;13.422;2023-05-10T08:03:30;17.40;50.00
9393;DHT22;4736;52.508;13.422;2023-05-10T08:06:33;17.50;49.60
9393;DHT22;4736;52.508;13.422;2023-05-10T08:09:36;17.50;50.20
9393;DHT22;4736;52.508;13.422;2023-05-10T08:12:40;17.40;49.70
9393;DHT22;4736;52.508;13.422;2023-05-10T08:15:43;17.40;49.70
9393;DHT22;4736;52.508;13.422;2023-05-10T08:18:47;17.40;50.50
9393;DHT22;4736;52.508;13.422;2023-05-10T08:21:52;17.60;49.90
9393;DHT22;4736;52.508;13.422;2023-05-10T08:24:57;17.60;49.90
9393;DHT22;4736;52.508;13.422;2023-05-10T08:28:02;17.70;50.30
9393;DHT22;4736;52.508;13.422;2023-05-10T08:31:05;17.70;49.70
9393;DHT22;4736;52.508;13.422;2023-05-10T08:34:09;17.80;48.90
9393;DHT22;4736;52.508;13.422;2023-05-10T08:37:12;18.00;49.40
9393;DHT22;4736;52.508;13.422;2023-05-10T08:40:15;18.10;49.30
9393;DHT22;4736;52.508;13.422;2023-05-10T08:43:19;18.30;48.80
9393;DHT22;4736;52.508;13.422;2023-05-10T08:46:23;18.50;48.80
9393;DHT22;4736;52.508;13.422;2023-05-10T08:49:27;18.50;48.00
9393;DHT22;4736;52.508;13.422;2023-05-10T08:52:33;18.50;48.50
9393;DHT22;4736;52.508;13.422;2023-05-10T08:55:40;18.60;48.80
9393;DHT22;4736;52.508;13.422;2023-05-10T08:58:47;18.70;48.60
9393;DHT22;4736;52.508;13.422;2023-05-10T09:01:50;18.80;48.40
9393;DHT22;4736;52.508;13.422;2023-05-10T09:04:55;18.90;47.80
9393;DHT22;4736;52.508;13.422;2023-05-10T09:07:58;19.00;47.70
9393;DHT22;4736;52.508;13.422;2023-05-10T09:11:02;19.10;48.60
9393;DHT22;4736;52.508;13.422;2023-05-10T09:14:08;19.30;47.90
9393;DHT22;4736;52.508;13.422;2023-05-10T09:17:14;19.30;47.20
9393;DHT22;4736;52.508;13.422;2023-05-10T09:20:18;19.20;47.90
9393;DHT22;4736;52.508;13.422;2023-05-10T09:23:22;19.40;47.30
9393;DHT22;4736;52.508;13.422;2023-05-10T09:26:30;19.50;47.70
9393;DHT22;4736;52.508;13.422;2023-05-10T09:29:41;19.70;47.40
9393;DHT22;4736;52.508;13.422;2023-05-10T09:32:47;19.80;47.20
9393;DHT22;4736;52.508;13.422;2023-05-10T09:35:51;19.80;46.80
9393;DHT22;4736;52.508;13.422;2023-05-10T09:38:54;19.70;46.80
9393;DHT22;4736;52.508;13.422;2023-05-10T09:41:58;19.80;47.70
9393;DHT22;4736;52.508;13.422;2023-05-10T09:45:05;19.90;47.40
9393;DHT22;4736;52.508;13.422;2023-05-10T09:48:09;20.00;47.10
9393;DHT22;4736;52.508;13.422;2023-05-10T09:51:19;19.90;47.50
9393;DHT22;4736;52.508;13.422;2023-05-10T09:54:22;20.00;47.00
9393;DHT22;4736;52.508;13.422;2023-05-10T09:57:26;20.20;47.50
9393;DHT22;4736;52.508;13.422;2023-05-10T10:00:35;20.30;46.80
9393;DHT22;4736;52.508;13.422;2023-05-10T10:03:42;20.40;45.90
9393;DHT22;4736;52.508;13.422;2023-05-10T10:06:45;20.30;46.20
9393;DHT22;4736;52.508;13.422;2023-05-10T10:09:48;20.30;46.60
9393;DHT22;4736;52.508;13.422;2023-05-10T10:12:51;20.30;46.50
9393;DHT22;4736;52.508;13.422;2023-05-10T10:15:56;20.30;46.30
9393;DHT22;4736;52.508;13.422;2023-05-10T10:18:59;20.20;46.90
9393;DHT22;4736;52.508;13.422;2023-05-10T10:22:03;20.30;46.10
9393;DHT22;4736;52.508;13.422;2023-05-10T10:25:07;20.50;46.10
9393;DHT22;4736;52.508;13.422;2023-05-10T10:28:19;20.50;46.60
9393;DHT22;4736;52.508;13.422;2023-05-10T10:31:34;20.70;46.10
9393;DHT22;4736;52.508;13.422;2023-05-10T10:34:40;20.80;45.40
9393;DHT22;4736;52.508;13.422;2023-05-10T10:37:44;20.80;45.60
9393;DHT22;4736;52.508;13.422;2023-05-10T10:40:56;20.80;45.20
9393;DHT22;4736;52.508;13.422;2023-05-10T10:44:26;20.80;44.90
9393;DHT22;4736;52.508;13.422;2023-05-10T10:47:30;20.90;44.80
9393;DHT22;4736;52.508;13.422;2023-05-10T10:50:43;20.90;45.60
9393;DHT22;4736;52.508;13.422;2023-05-10T10:53:48;20.90;45.20
9393;DHT22;4736;52.508;13.422;2023-05-10T10:57:12;21.00;44.90
9393;DHT22;4736;52.508;13.422;2023-05-10T11:00:23;21.00;45.30
9393;DHT22;4736;52.508;13.422;2023-05-10T11:03:28;21.10;46.00
9393;DHT22;4736;52.508;13.422;2023-05-10T11:06:32;21.00;46.10
9393;DHT22;4736;52.508;13.422;2023-05-10T11:09:39;21.10;45.70
9393;DHT22;4736;52.508;13.422;2023-05-10T11:12:51;21.40;44.80
9393;DHT22;4736;52.508;13.422;2023-05-10T11:15:55;21.40;44.90
9393;DHT22;4736;52.508;13.422;2023-05-10T11:19:04;21.50;44.80
9393;DHT22;4736;52.508;13.422;2023-05-10T11:22:14;21.70;44.60
9393;DHT22;4736;52.508;13.422;2023-05-10T11:25:17;21.70;44.10
9393;DHT22;4736;52.508;13.422;2023-05-10T11:28:20;21.80;44.30
9393;DHT22;4736;52.508;13.422;2023-05-10T11:31:25;21.90;44.20
9393;DHT22;4736;52.508;13.422;2023-05-10T11:34:31;21.80;44.50
9393;DHT22;4736;52.508;13.422;2023-05-10T11:37:35;21.90;44.10
9393;DHT22;4736;52.508;13.422;2023-05-10T11:40:42;21.90;44.60
9393;DHT22;4736;52.508;13.422;2023-05-10T11:43:46;21.70;44.80
9393;DHT22;4736;52.508;13.422;2023-05-10T11:46:50;21.70;45.20
9393;DHT22;4736;52.508;13.422;2023-05-10T11:49:56;21.90;45.30
9393;DHT22;4736;52.508;13.422;2023-05-10T11:52:59;22.10;44.10
9393;DHT22;4736;52.508;13.422;2023-05-10T11:56:03;22.20;43.50
9393;DHT22;4736;52.508;13.422;2023-05-10T11:59:07;22.30;43.30
9393;DHT22;4736;52.508;13.422;2023-05-10T12:02:11;22.50;42.90
9393;DHT22;4736;52.508;13.422;2023-05-10T12:05:16;22.50;43.30
9393;DHT22;4736;52.508;13.422;2023-05-10T12:08:21;22.60;42.60
9393;DHT22;4736;52.508;13.422;2023-05-10T12:11:25;22.60;42.80
9393;DHT22;4736;52.508;13.422;2023-05-10T12:14:29;22.50;42.70
9393;DHT22;4736;52.508;13.422;2023-05-10T12:17:37;22.60;42.70
9393;DHT22;4736;52.508;13.422;2023-05-10T12:20:45;22.70;42.60
9393;DHT22;4736;52.508;13.422;2023-05-10T12:23:50;22.60;42.60
9393;DHT22;4736;52.508;13.422;2023-05-10T12:26:54;22.70;42.50
9393;DHT22;4736;52.508;13.422;2023-05-10T12:29:59;22.90;42.80
9393;DHT22;4736;52.508;13.422;2023-05-10T12:33:07;23.10;41.90
9393;DHT22;4736;52.508;13.422;2023-05-10T12:36:13;23.20;41.40
9393;DHT22;4736;52.508;13.422;2023-05-10T12:39:16;23.20;42.10
9393;DHT22;4736;52.508;13.422;2023-05-10T12:42:19;23.20;42.10
9393;DHT22;4736;52.508;13.422;2023-05-10T12:45:22;23.30;42.60
9393;DHT22;4736;52.508;13.422;2023-05-10T12:48:25;23.40;42.70
9393;DHT22;4736;52.508;13.422;2023-05-10T12:51:31;23.50;42.50
9393;DHT22;4736;52.508;13.422;2023-05-10T12:54:34;23.40;42.20
9393;DHT22;4736;52.508;13.422;2023-05-10T12:57:38;23.30;41.90
9393;DHT22;4736;52.508;13.422;2023-05-10T13:00:41;23.10;41.70
9393;DHT22;4736;52.508;13.422;2023-05-10T13:03:45;22.90;41.90
9393;DHT22;4736;52.508;13.422;2023-05-10T13:06:49;23.00;41.70
9393;DHT22;4736;52.508;13.422;2023-05-10T13:09:52;23.30;42.10
9393;DHT22;4736;52.508;13.422;2023-05-10T13:12:55;23.30;42.00
9393;DHT22;4736;52.508;13.422;2023-05-10T13:15:58;23.40;41.60
9393;DHT22;4736;52.508;13.422;2023-05-10T13:19:01;23.40;41.90
9393;DHT22;4736;52.508;13.422;2023-05-10T13:22:08;23.40;41.60
9393;DHT22;4736;52.508;13.422;2023-05-10T13:25:11;23.30;41.80
9393;DHT22;4736;52.508;13.422;2023-05-10T13:28:14;23.20;41.80
9393;DHT22;4736;52.508;13.422;2023-05-10T13:31:17;23.10;42.20
9393;DHT22;4736;52.508;13.422;2023-05-10T13:34:20;23.10;42.90
9393;DHT22;4736;52.508;13.422;2023-05-10T13:37:25;23.20;42.00
9393;DHT22;4736;52.508;13.422;2023-05-10T13:40:28;23.20;42.10
9393;DHT22;4736;52.508;13.422;2023-05-10T13:43:32;23.30;42.00
9393;DHT22;4736;52.508;13.422;2023-05-10T13:46:36;23.30;41.90
9393;DHT22;4736;52.508;13.422;2023-05-10T13:49:40;23.60;42.20
9393;DHT22;4736;52.508;13.422;2023-05-10T13:52:44;23.60;41.10
9393;DHT22;4736;52.508;13.422;2023-05-10T13:55:47;23.60;41.30
9393;DHT22;4736;52.508;13.422;2023-05-10T13:58:50;23.40;41.50
9393;DHT22;4736;52.508;13.422;2023-05-10T14:01:54;23.20;41.30
9393;DHT22;4736;52.508;13.422;2023-05-10T14:04:57;23.30;41.20
9393;DHT22;4736;52.508;13.422;2023-05-10T14:08:01;23.40;41.40
9393;DHT22;4736;52.508;13.422;2023-05-10T14:11:05;23.60;40.60
9393;DHT22;4736;52.508;13.422;2023-05-10T14:14:08;23.60;40.90
9393;DHT22;4736;52.508;13.422;2023-05-10T14:17:11;23.60;41.70
9393;DHT22;4736;52.508;13.422;2023-05-10T14:20:14;23.80;40.80
9393;DHT22;4736;52.508;13.422;2023-05-10T14:23:19;23.80;40.60
9393;DHT22;4736;52.508;13.422;2023-05-10T14:26:26;23.80;40.80
9393;DHT22;4736;52.508;13.422;2023-05-10T14:29:29;23.80;40.80
9393;DHT22;4736;52.508;13.422;2023-05-10T14:32:32;23.90;40.00
9393;DHT22;4736;52.508;13.422;2023-05-10T14:35:35;23.90;40.10
9393;DHT22;4736;52.508;13.422;2023-05-10T14:38:40;24.00;39.20
9393;DHT22;4736;52.508;13.422;2023-05-10T14:41:43;24.10;39.80
9393;DHT22;4736;52.508;13.422;2023-05-10T14:44:47;24.10;39.60
9393;DHT22;4736;52.508;13.422;2023-05-10T14:47:50;24.20;39.40
9393;DHT22;4736;52.508;13.422;2023-05-10T14:50:53;24.00;40.40
9393;DHT22;4736;52.508;13.422;2023-05-10T14:53:57;23.90;40.60
9393;DHT22;4736;52.508;13.422;2023-05-10T14:57:01;23.80;40.00
9393;DHT22;4736;52.508;13.422;2023-05-10T15:00:05;23.80;39.60
9393;DHT22;4736;52.508;13.422;2023-05-10T15:03:09;23.70;39.90
9393;DHT22;4736;52.508;13.422;2023-05-10T15:06:14;23.70;39.90
9393;DHT22;4736;52.508;13.422;2023-05-10T15:09:18;23.80;40.40
9393;DHT22;4736;52.508;13.422;2023-05-10T15:12:22;23.90;40.30
9393;DHT22;4736;52.508;13.422;2023-05-10T15:15:25;23.60;40.90
9393;DHT22;4736;52.508;13.422;2023-05-10T15:18:29;23.60;40.50
9393;DHT22;4736;52.508;13.422;2023-05-10T15:21:33;23.30;40.80
9393;DHT22;4736;52.508;13.422;2023-05-10T15:24:42;23.00;41.40
9393;DHT22;4736;52.508;13.422;2023-05-10T15:27:46;22.60;41.80
9393;DHT22;4736;52.508;13.422;2023-05-10T15:30:49;22.50;42.20
9393;DHT22;4736;52.508;13.422;2023-05-10T15:33:57;22.30;41.80
9393;DHT22;4736;52.508;13.422;2023-05-10T15:37:00;22.10;41.90
9393;DHT22;4736;52.508;13.422;2023-05-10T15:40:06;22.10;41.80
9393;DHT22;4736;52.508;13.422;2023-05-10T15:43:09;22.10;42.20
9393;DHT22;4736;52.508;13.422;2023-05-10T15:46:12;22.20;42.10
9393;DHT22;4736;52.508;13.422;2023-05-10T15:49:15;22.20;42.60
9393;DHT22;4736;52.508;13.422;2023-05-10T15:52:19;22.10;42.80
9393;DHT22;4736;52.508;13.422;2023-05-10T15:55:25;22.00;43.00
9393;DHT22;4736;52.508;13.422;2023-05-10T15:58:28;22.00;43.00
9393;DHT22;4736;52.508;13.422;2023-05-10T16:01:32;22.00;43.30
9393;DHT22;4736;52.508;13.422;2023-05-10T16:04:36;22.10;42.90
9393;DHT22;4736;52.508;13.422;2023-05-10T16:07:39;22.10;43.40
9393;DHT22;4736;52.508;13.422;2023-05-10T16:10:44;22.30;42.80
9393;DHT22;4736;52.508;13.422;2023-05-10T16:13:47;22.40;42.80
9393;DHT22;4736;52.508;13.422;2023-05-10T16:16:50;22.30;42.80
9393;DHT22;4736;52.508;13.422;2023-05-10T16:19:53;22.00;43.20
9393;DHT22;4736;52.508;13.422;2023-05-10T16:23:02;21.90;43.80
9393;DHT22;4736;52.508;13.422;2023-05-10T16:26:07;21.80;44.20
9393;DHT22;4736;52.508;13.422;2023-05-10T16:29:10;21.70;43.70
9393;DHT22;4736;52.508;13.422;2023-05-10T16:32:13;21.60;44.10
9393;DHT22;4736;52.508;13.422;2023-05-10T16:35:16;21.50;44.20
9393;DHT22;4736;52.508;13.422;2023-05-10T16:38:19;21.50;44.40
9393;DHT22;4736;52.508;13.422;2023-05-10T16:41:23;21.70;46.40
9393;DHT22;4736;52.508;13.422;2023-05-10T16:44:27;21.60;46.80
9393;DHT22;4736;52.508;13.422;2023-05-10T16:47:30;21.60;47.60
9393;DHT22;4736;52.508;13.422;2023-05-10T16:50:33;21.50;48.40
9393;DHT22;4736;52.508;13.422;2023-05-10T16:53:36;21.40;48.80
9393;DHT22;4736;52.508;13.422;2023-05-10T16:56:40;21.30;49.10
9393;DHT22;4736;52.508;13.422;2023-05-10T16:59:43;21.10;50.10
9393;DHT22;4736;52.508;13.422;2023-05-10T17:02:46;20.90;53.50
9393;DHT22;4736;52.508;13.422;2023-05-10T17:05:50;20.70;54.20
9393;DHT22;4736;52.508;13.422;2023-05-10T17:08:53;20.60;55.30
9393;DHT22;4736;52.508;13.422;2023-05-10T17:11:57;20.50;55.50
9393;DHT22;4736;52.508;13.422;2023-05-10T17:15:00;20.30;56.20
9393;DHT22;4736;52.508;13.422;2023-05-10T17:18:04;20.20;56.30
9393;DHT22;4736;52.508;13.422;2023-05-10T17:21:08;20.00;56.50
9393;DHT22;4736;52.508;13.422;2023-05-10T17:24:12;20.00;56.50
9393;DHT22;4736;52.508;13.422;2023-05-10T17:27:17;19.90;56.70
9393;DHT22;4736;52.508;13.422;2023-05-10T17:30:20;19.80;56.90
9393;DHT22;4736;52.508;13.422;2023-05-10T17:33:27;19.70;57.10
9393;DHT22;4736;52.508;13.422;2023-05-10T17:36:30;19.60;57.80
9393;DHT22;4736;52.508;13.422;2023-05-10T17:39:33;19.50;57.80
9393;DHT22;4736;52.508;13.422;2023-05-10T17:42:39;19.50;58.00
9393;DHT22;4736;52.508;13.422;2023-05-10T17:45:42;19.50;58.70
9393;DHT22;4736;52.508;13.422;2023-05-10T17:48:47;19.40;59.00
9393;DHT22;4736;52.508;13.422;2023-05-10T17:51:50;19.30;59.40
9393;DHT22;4736;52.508;13.422;2023-05-10T17:54:53;19.20;59.50
9393;DHT22;4736;52.508;13.422;2023-05-10T17:57:57;19.10;59.80
9393;DHT22;4736;52.508;13.422;2023-05-10T18:01:01;19.00;60.00
9393;DHT22;4736;52.508;13.422;2023-05-10T18:04:04;19.00;60.00
9393;DHT22;4736;52.508;13.422;2023-05-10T18:07:08;18.90;60.20
9393;DHT22;4736;52.508;13.422;2023-05-10T18:10:11;18.80;60.50
9393;DHT22;4736;52.508;13.422;2023-05-10T18:13:16;18.70;60.90
9393;DHT22;4736;52.508;13.422;2023-05-10T18:16:19;18.50;60.90
9393;DHT22;4736;52.508;13.422;2023-05-10T18:19:22;18.50;61.30
9393;DHT22;4736;52.508;13.422;2023-05-10T18:22:26;18.40;61.40
9393;DHT22;4736;52.508;13.422;2023-05-10T18:25:29;18.30;61.40
9393;DHT22;4736;52.508;13.422;2023-05-10T18:28:34;18.30;61.30
9393;DHT22;4736;52.508;13.422;2023-05-10T18:31:37;18.20;61.70
9393;DHT22;4736;52.508;13.422;2023-05-10T18:34:41;18.10;62.30
9393;DHT22;4736;52.508;13.422;2023-05-10T18:37:44;18.00;62.00
9393;DHT22;4736;52.508;13.422;2023-05-10T18:40:47;18.00;61.90
9393;DHT22;4736;52.508;13.422;2023-05-10T18:43:53;17.90;62.30
9393;DHT22;4736;52.508;13.422;2023-05-10T18:46:56;17.80;62.40
9393;DHT22;4736;52.508;13.422;2023-05-10T18:50:01;17.80;62.40
9393;DHT22;4736;52.508;13.422;2023-05-10T18:53:06;17.60;62.50
9393;DHT22;4736;52.508;13.422;2023-05-10T18:56:09;17.60;62.60
9393;DHT22;4736;52.508;13.422;2023-05-10T18:59:16;17.50;62.90
9393;DHT22;4736;52.508;13.422;2023-05-10T19:02:20;17.50;62.90
9393;DHT22;4736;52.508;13.422;2023-05-10T19:05:23;17.40;63.20
9393;DHT22;4736;52.508;13.422;2023-05-10T19:08:30;17.40;63.30
9393;DHT22;4736;52.508;13.422;2023-05-10T19:11:33;17.30;63.70
9393;DHT22;4736;52.508;13.422;2023-05-10T19:14:38;17.20;63.80
9393;DHT22;4736;52.508;13.422;2023-05-10T19:17:41;17.20;63.80
9393;DHT22;4736;52.508;13.422;2023-05-10T19:20:46;17.10;63.90
9393;DHT22;4736;52.508;13.422;2023-05-10T19:23:49;17.00;63.90
9393;DHT22;4736;52.508;13.422;2023-05-10T19:26:53;17.00;64.10
9393;DHT22;4736;52.508;13.422;2023-05-10T19:29:59;16.90;64.60
9393;DHT22;4736;52.508;13.422;2023-05-10T19:33:03;16.90;64.50
9393;DHT22;4736;52.508;13.422;2023-05-10T19:36:06;16.80;64.40
9393;DHT22;4736;52.508;13.422;2023-05-10T19:39:09;16.70;64.50
9393;DHT22;4736;52.508;13.422;2023-05-10T19:42:13;16.70;64.50
9393;DHT22;4736;52.508;13.422;2023-05-10T19:45:18;16.70;64.70
9393;DHT22;4736;52.508;13.422;2023-05-10T19:48:21;16.60;64.90